Аэропорт Эдинбург: онлайн табло прилетов и вылетов аэропорта

1 пассажир, эконом
Взрослые 1
Дети до 12 лет 0
Дети до 2 лет 0

Онлайн табло Эдинбургского аэропорта расположено в самом удобном для обзора месте. Терминал всего один, поэтому по прибытию вы увидите всего одно здание. Продуманность которого и множество информационных табличек легко поможет вам сориентироваться в нем, и сможете найти всю информацию об интересующем вам рейсе на дисплее электронного табло. Для удобства вся информация отображена на английском языке, что соответствует информации в вашем посадочном талоне. Часовой пояс в Шотландии +0, поэтому разница с Москвой 3 часа.

До центра города 13 км от терминала, куда вы сможете добраться общественным наземным транспортом или воспользоваться услугами такси. Железная дорога или метро пока не соединяет город и аэропорт, поэтому будьте готовы сразу погрузится в довольно плотный трафик дорог с аэропорта.  Дорога до центра у вас может занять от 1-го до 2-х часов в зависимости времени суток. Стоимость билета на автобус будет порядка 400 рублей, а такси 2500-3000 рублей.

Также вся информация о рейсе находится на официальном сайте, где есть вся необходимая информация на онлайн табло, о прибытии и отбытии самолетов, об их задержках, начале регистрации, номеру стойки и ворот отбытия и прибытия.

Также по прибытию в Шотландию будьте готовы к высокой влажности и невысокой температуре воздуха и частым осадкам в виде дождя.

Рейс Борт Направление Перевозчик Время прибытия
FR 6625 Boeing 737-800 Краков — Эдинбург Ryanair 00:20, 19.05
U2 6946 Airbus А320 Пафос — Эдинбург Easyjet 00:45, 19.05
LS 798 Boeing 737-800 Пафос — Эдинбург Jet2.com 01:15, 19.05
U2 6948 Airbus А320 Мугла — Эдинбург Easyjet 01:25, 19.05
U2 6950 Airbus А320 Тенерифе — Эдинбург Easyjet 01:35, 19.05
LS 722 Boeing 737-800 Ларнака — Эдинбург Jet2.com 01:40, 19.05
LS 746 Boeing 737-800 Фуэртевентура — Эдинбург Jet2.com 01:50, 19.05
LS 712 Boeing 737-800 Даламан — Эдинбург Jet2.com 02:10, 19.05
LS 710 Boeing 737-800 Анталья — Эдинбург Jet2.com 02:20, 19.05
FR 812 Boeing 737-800 Дублин — Эдинбург Ryanair 07:25, 19.05
FR 4525 Boeing 737-800 Варшава — Эдинбург Ryanair 07:40, 19.05
FR 5833 Boeing 737-800 Бергамо — Эдинбург Ryanair 07:45, 19.05
EI 3250 ATR 72 Дублин — Эдинбург Aer Lingus 07:55, 19.05
W6 1407 Airbus А321 Варшава — Эдинбург Wizz Air 08:00, 19.05
UA 36 Boeing 757-200 Нью-Йорк — Эдинбург United Airlines 08:05, 19.05
BA 8700 Embraer 190 Лондон — Эдинбург British Airways 08:15, 19.05
U2 421 Airbus А320 Бристоль — Эдинбург Easyjet 08:20, 19.05
BA 1432 Airbus A320 Лондон — Эдинбург British Airways 08:25, 19.05
KL 1277 Embraer 190 Амстердам — Эдинбург KLM 08:25, 19.05
U2 6473 Airbus А320 Лондон — Эдинбург Easyjet 08:35, 19.05
FR 9706 Airbus А320 Вена — Эдинбург Ryanair 08:50, 19.05
U2 481 Airbus А320 Белфаст — Эдинбург Easyjet 09:20, 19.05
BA 1434 Airbus А320 Лондон — Эдинбург British Airways 09:20, 19.05
U2 11 Airbus А320 Лондон — Эдинбург Easyjet 09:30, 19.05
SK 4601 Boeing 737-700 Осло — Эдинбург Scandinavian Airlines 09:40, 19.05
U2 803 Airbus A319 Лондон — Эдинбург Easyjet 09:45, 19.05
LM 392 ATR 42/ATR 72 FR/IT Керкуолл — Эдинбург Loganair 09:50, 19.05
LM 386 Embraer RJ145 Ставангер — Эдинбург Loganair 09:55, 19.05
BA 8702 Embraer 190 Лондон — Эдинбург British Airways 10:00, 19.05
U2 502 Airbus А320 Бирмингем — Эдинбург Easyjet 10:00, 19.05
LM 322 Embraer RJ145 Саутгемптон — Эдинбург Loganair 10:00, 19.05
FR 3731 Boeing 737-800 Корк — Эдинбург Ryanair 10:05, 19.05
LH 2524 Airbus A319 Мюнхен — Эдинбург Lufthansa 10:10, 19.05
FR 9308 Boeing 737-800 Париж — Эдинбург Ryanair 10:20, 19.05
DY 1640 Boeing 737-800 Осло — Эдинбург Norwegian 10:50, 19.05
UA 978 Boeing 767-400 Вашингтон — Эдинбург United Airlines 10:50, 19.05
LM 352 ATR 42/ATR 72 FR/IT Сумбург — Эдинбург Loganair 10:55, 19.05
FR 7353 Boeing 737-800 Брюссель — Эдинбург Ryanair 10:55, 19.05
BA 2216 Embraer 190 Лондон — Эдинбург British Airways 11:00, 19.05
EI 3652 ATR 72 Белфаст — Эдинбург Aer Lingus 11:10, 19.05
FR 2377 Boeing 737-800 Берлин — Эдинбург Ryanair 11:10, 19.05
U2 6984 Airbus A319 Копенгаген — Эдинбург Easyjet 11:15, 19.05
EI 3252 ATR 72 Дублин — Эдинбург Aer Lingus 11:25, 19.05
BA 1450 Airbus A320 Лондон — Эдинбург British Airways 11:45, 19.05
EW 362 Airbus A319 Кельн — Эдинбург Eurowings 11:45, 19.05
LH 962 Airbus A320 Франкфурт-на-Майне — Эдинбург Lufthansa 11:55, 19.05
RC 414 Airbus A320 Фаро — Эдинбург Atlantic Airways Faroe Islands 12:00, 19.05
TK 4081 Boeing 737 Анталья — Эдинбург Turkish Airlines 12:00, 19.05
FR 3598 Boeing 737-800 Шеннон — Эдинбург Ryanair 12:05, 19.05
EW 9364 Airbus А320 Дюссельдорф — Эдинбург Eurowings 12:15, 19.05
FR 1158 Boeing 737-800 Вроцлав — Эдинбург Ryanair 12:15, 19.05
U2 6917 Airbus А320 Базель — Эдинбург Easyjet 12:25, 19.05
U2 3385 Airbus А320 Венеция — Эдинбург Easyjet 12:40, 19.05
KL 1281 Boeing 737-800 Амстердам — Эдинбург KLM 12:40, 19.05
FR 6267 Boeing 737-800 Барселона — Эдинбург Ryanair 12:45, 19.05
BA 8704 Embraer 190 Лондон — Эдинбург British Airways 12:45, 19.05
FR 6682 Boeing 737-800 Рим — Эдинбург Ryanair 12:55, 19.05
FR 2454 Boeing 737-800 Болонья — Эдинбург Ryanair 12:55, 19.05
U2 6982 Airbus А320 Лиссабон — Эдинбург Easyjet 13:00, 19.05
LM 344 ATR 42/ATR 72 FR/IT Сторновей — Эдинбург Loganair 13:10, 19.05
FR 891 Boeing 737-800 Нок — Эдинбург Ryanair 13:20, 19.05
FR 9287 Boeing 737-800 Задар — Эдинбург Ryanair 13:25, 19.05
BA 1442 Airbus A320 NEO Лондон — Эдинбург British Airways 13:30, 19.05
LS 718 Boeing 737-800 Пальма-де-Майорка — Эдинбург Jet2.com 13:30, 19.05
FR 816 Boeing 737-800 Дублин — Эдинбург Ryanair 13:35, 19.05
LM 318 Embraer RJ145 Эксетер — Эдинбург Loganair 13:40, 19.05
LM 324 Embraer RJ145 Саутгемптон — Эдинбург Loganair 13:45, 19.05
U2 6922 Airbus А320 Амстердам — Эдинбург Easyjet 13:50, 19.05
LS 816 Boeing 737-800 Фару — Эдинбург Jet2.com 14:20, 19.05
LS 806 Boeing 737-800 Ибица — Эдинбург Jet2.com 14:30, 19.05
SN 2063 Airbus A319 Брюссель — Эдинбург Brussels Airlines 14:30, 19.05
D8 3502 Boeing 737-800 Копенгаген — Эдинбург Norwegian 14:30, 19.05
LS 750 Boeing 737-800 Керкира — Эдинбург Jet2.com 14:45, 19.05
LS 776 Boeing 737-800 Аликанте — Эдинбург Jet2.com 14:45, 19.05
U2 5547 Airbus А320 Берлин — Эдинбург Easyjet 14:45, 19.05
FR 5161 Boeing 737-800 София — Эдинбург Ryanair 14:55, 19.05
EI 3256 ATR 72 Дублин — Эдинбург Aer Lingus 15:05, 19.05
U2 807 Airbus A319 Лондон — Эдинбург Easyjet 15:05, 19.05
FR 6241 Boeing 737-800 Дюссельдорф — Эдинбург Ryanair 15:10, 19.05
U2 15 Airbus A319 Лондон — Эдинбург Easyjet 15:10, 19.05
BA 8716 Embraer 190 Лондон — Эдинбург British Airways 15:20, 19.05
BA 1444 Airbus А320 Лондон — Эдинбург British Airways 15:40, 19.05
U2 6906 Airbus А320 Женева — Эдинбург Easyjet 15:45, 19.05
FR 814 Boeing 737-800 Дублин — Эдинбург Ryanair 15:45, 19.05
TK 1345 Airbus А321 Стамбул — Эдинбург Turkish Airlines 15:50, 19.05
FR 6655 Boeing 737-800 Бордо — Эдинбург Ryanair 16:00, 19.05
AF 1486 Airbus A319 Париж — Эдинбург Air France 16:05, 19.05
KL 1289 Boeing 737-800 Амстердам — Эдинбург KLM 16:40, 19.05
FR 8422 Boeing 737-800 Фуэртевентура — Эдинбург Ryanair 16:45, 19.05
U2 427 Airbus А320 Бристоль — Эдинбург Easyjet 17:00, 19.05
BA 8706 Embraer 190 Лондон — Эдинбург British Airways 17:05, 19.05
U2 6974 Airbus A319 Пальма-де-Майорка — Эдинбург Easyjet 17:05, 19.05
AY 1373 Airbus A319 Хельсинки — Эдинбург Finnair 17:15, 19.05
U2 809 Airbus A319 Лондон — Эдинбург Easyjet 17:20, 19.05
FR 6657 Boeing 737-800 Пальма-де-Майорка — Эдинбург Ryanair 17:20, 19.05
LH 964 Airbus А321 Франкфурт-на-Майне — Эдинбург Lufthansa 17:20, 19.05
LM 326 Embraer RJ145 Саутгемптон — Эдинбург Loganair 17:30, 19.05
LM 338 Embraer RJ145 Кардифф — Эдинбург Loganair 17:35, 19.05
U2 6956 Airbus А320 Париж — Эдинбург Easyjet 17:35, 19.05
BA 1452 Airbus A320 NEO Лондон — Эдинбург British Airways 17:50, 19.05

 

Другие аэропорты этой страны:
Вы можете заказать обратный звонок прямо сейчас!